KSAD/SAD METAR and TAF weather

Enter ICAO airport designator
Station Type Date Time Source
KSAD METAR 2020/04/06 10:51 UTC NOAA

KSAD 061051Z AUTO 06003KT 10SM CLR 10/M03 A2990 RMK AO2 SLP091 T01001033


Station Type Date Time Source
KSAD Decoded METAR 2020/04/06 10:51 UTC NOAA

SAFFORD MUNICIPAL AIRPORT, AZ, United States (KSAD) 32-51N 109-38W 962M
Apr 06, 2020 - 06:51 AM EDT / 2020.04.06 1051 UTC
Wind: from the ENE (060 degrees) at 3 MPH (3 KT):0
Visibility: 10 mile(s):0
Sky conditions: clear
Temperature: 50.0 F (10.0 C)
Dew Point: 26.1 F (-3.3 C)
Relative Humidity: 39%
Pressure (altimeter): 29.9 in. Hg (1012 hPa)
ob: KSAD 061051Z AUTO 06003KT 10SM CLR 10/M03 A2990 RMK AO2 SLP091 T01001033
cycle: 11

Station Type Date Time Source
KSAD TAF UTC NOAA

Error!

Example: see airport list